Terminal Aerodrome Forecast
Issued by NWS Tampa Bay Area, FL

Home | Current Version | Previous Version | Text Only | Print | Product List | Glossary On
Versions: 1 2 3 4 5 6 7 8 9 10 11 12 13 14 15 16 17 18 19 20
000
FTUS42 KTBW 051100
TAFSRQ
TAF
KSRQ 051140Z 0512/0612 13004KT 6SM BR SCT008 BKN030
      TEMPO 0512/0514 3SM BR BKN005 OVC020
     FM051500 18010KT P6SM FEW020 SCT040
     FM051900 20012KT P6SM FEW025 SCT035
     FM060200 25004KT P6SM FEW020 SCT250
     FM060900 VRB03KT P6SM FEW030 SCT050=

USA.gov is the U.S. government's official web portal to all federal, state and local government web resources and services.